sensor_id;sensor_type;location;lat;lon;timestamp;pressure;altitude;pressure_sealevel;temperature;humidity
29903;BME280;30288;50.514;9.678;2023-04-20T00:00:00;98875.69;;;6.01;100.00
29903;BME280;30288;50.514;9.678;2023-04-20T00:02:17;98879.91;;;5.98;100.00
29903;BME280;30288;50.514;9.678;2023-04-20T00:04:22;98879.91;;;5.98;100.00
29903;BME280;30288;50.514;9.678;2023-04-20T00:06:28;98864.91;;;5.96;100.00
29903;BME280;30288;50.514;9.678;2023-04-20T00:08:34;98865.75;;;5.95;100.00
29903;BME280;30288;50.514;9.678;2023-04-20T00:10:39;98862.44;;;5.93;100.00
29903;BME280;30288;50.514;9.678;2023-04-20T00:12:44;98862.38;;;5.99;100.00
29903;BME280;30288;50.514;9.678;2023-04-20T00:14:49;98859.88;;;5.99;100.00
29903;BME280;30288;50.514;9.678;2023-04-20T00:16:55;98863.22;;;5.98;100.00
29903;BME280;30288;50.514;9.678;2023-04-20T00:19:03;98854.91;;;5.98;100.00
29903;BME280;30288;50.514;9.678;2023-04-20T00:21:09;98855.66;;;6.04;100.00
29903;BME280;30288;50.514;9.678;2023-04-20T00:23:14;98848.19;;;6.00;100.00
29903;BME280;30288;50.514;9.678;2023-04-20T00:25:20;98841.56;;;5.94;100.00
29903;BME280;30288;50.514;9.678;2023-04-20T00:27:26;98839.06;;;5.97;100.00
29903;BME280;30288;50.514;9.678;2023-04-20T00:29:32;98842.41;;;5.96;100.00
29903;BME280;30288;50.514;9.678;2023-04-20T00:31:38;98835.78;;;5.91;100.00
29903;BME280;30288;50.514;9.678;2023-04-20T00:33:48;98834.94;;;5.90;100.00
29903;BME280;30288;50.514;9.678;2023-04-20T00:35:55;98839.09;;;5.91;100.00
29903;BME280;30288;50.514;9.678;2023-04-20T00:38:00;98832.44;;;5.90;100.00
29903;BME280;30288;50.514;9.678;2023-04-20T00:40:07;98824.13;;;5.85;100.00
29903;BME280;30288;50.514;9.678;2023-04-20T00:42:13;98819.16;;;5.82;100.00
29903;BME280;30288;50.514;9.678;2023-04-20T00:44:18;98823.31;;;5.82;100.00
29903;BME280;30288;50.514;9.678;2023-04-20T00:46:23;98827.50;;;5.81;100.00
29903;BME280;30288;50.514;9.678;2023-04-20T00:48:29;98822.53;;;5.78;100.00
29903;BME280;30288;50.514;9.678;2023-04-20T00:50:34;98820.84;;;5.76;100.00
29903;BME280;30288;50.514;9.678;2023-04-20T00:52:44;98812.53;;;5.75;100.00
29903;BME280;30288;50.514;9.678;2023-04-20T00:54:49;98810.91;;;5.72;100.00
29903;BME280;30288;50.514;9.678;2023-04-20T00:56:55;98805.91;;;5.71;100.00
29903;BME280;30288;50.514;9.678;2023-04-20T00:59:01;98803.44;;;5.66;100.00
29903;BME280;30288;50.514;9.678;2023-04-20T01:01:06;98797.59;;;5.66;100.00
29903;BME280;30288;50.514;9.678;2023-04-20T01:03:12;98801.84;;;5.58;100.00
29903;BME280;30288;50.514;9.678;2023-04-20T01:05:22;98794.34;;;5.58;100.00
29903;BME280;30288;50.514;9.678;2023-04-20T01:07:29;98796.06;;;5.50;100.00
29903;BME280;30288;50.514;9.678;2023-04-20T01:09:39;98797.78;;;5.45;100.00
29903;BME280;30288;50.514;9.678;2023-04-20T01:11:44;98795.28;;;5.42;100.00
29903;BME280;30288;50.514;9.678;2023-04-20T01:13:50;98793.66;;;5.41;100.00
29903;BME280;30288;50.514;9.678;2023-04-20T01:15:57;98792.00;;;5.35;100.00
29903;BME280;30288;50.514;9.678;2023-04-20T01:18:05;98795.38;;;5.31;100.00
29903;BME280;30288;50.514;9.678;2023-04-20T01:20:12;98799.53;;;5.31;100.00
29903;BME280;30288;50.514;9.678;2023-04-20T01:22:21;98802.06;;;5.24;100.00
29903;BME280;30288;50.514;9.678;2023-04-20T01:24:27;98794.56;;;5.24;100.00
29903;BME280;30288;50.514;9.678;2023-04-20T01:26:33;98794.59;;;5.21;100.00
29903;BME280;30288;50.514;9.678;2023-04-20T01:28:38;98790.41;;;5.23;100.00
29903;BME280;30288;50.514;9.678;2023-04-20T01:30:44;98788.75;;;5.21;100.00
29903;BME280;30288;50.514;9.678;2023-04-20T01:32:49;98782.13;;;5.17;100.00
29903;BME280;30288;50.514;9.678;2023-04-20T01:34:54;98785.47;;;5.17;100.00
29903;BME280;30288;50.514;9.678;2023-04-20T01:37:01;98790.44;;;5.20;100.00
29903;BME280;30288;50.514;9.678;2023-04-20T01:39:12;98786.25;;;5.22;100.00
29903;BME280;30288;50.514;9.678;2023-04-20T01:41:17;98787.97;;;5.17;100.00
29903;BME280;30288;50.514;9.678;2023-04-20T01:43:23;98781.28;;;5.13;100.00
29903;BME280;30288;50.514;9.678;2023-04-20T01:45:28;98778.00;;;5.11;100.00
29903;BME280;30288;50.514;9.678;2023-04-20T01:47:34;98778.00;;;5.11;100.00
29903;BME280;30288;50.514;9.678;2023-04-20T01:49:41;98781.31;;;5.15;100.00
29903;BME280;30288;50.514;9.678;2023-04-20T01:51:46;98778.03;;;5.07;100.00
29903;BME280;30288;50.514;9.678;2023-04-20T01:53:51;98771.38;;;5.04;100.00
29903;BME280;30288;50.514;9.678;2023-04-20T01:55:59;98771.41;;;4.98;100.00
29903;BME280;30288;50.514;9.678;2023-04-20T01:58:04;98766.41;;;4.95;100.00
29903;BME280;30288;50.514;9.678;2023-04-20T02:00:11;98768.13;;;4.93;100.00
29903;BME280;30288;50.514;9.678;2023-04-20T02:02:18;98762.28;;;4.93;100.00
29903;BME280;30288;50.514;9.678;2023-04-20T02:04:24;98765.63;;;4.87;100.00
29903;BME280;30288;50.514;9.678;2023-04-20T02:06:29;98760.66;;;4.85;100.00
29903;BME280;30288;50.514;9.678;2023-04-20T02:08:35;98769.78;;;4.91;100.00
29903;BME280;30288;50.514;9.678;2023-04-20T02:10:42;98768.91;;;4.97;100.00
29903;BME280;30288;50.514;9.678;2023-04-20T02:12:50;98764.78;;;4.91;100.00
29903;BME280;30288;50.514;9.678;2023-04-20T02:14:55;98763.16;;;4.87;100.00
29903;BME280;30288;50.514;9.678;2023-04-20T02:17:01;98762.31;;;4.87;100.00
29903;BME280;30288;50.514;9.678;2023-04-20T02:19:06;98761.50;;;4.80;100.00
29903;BME280;30288;50.514;9.678;2023-04-20T02:21:12;98764.84;;;4.76;100.00
29903;BME280;30288;50.514;9.678;2023-04-20T02:23:18;98759.03;;;4.78;100.00
29903;BME280;30288;50.514;9.678;2023-04-20T02:25:24;98758.22;;;4.72;100.00
29903;BME280;30288;50.514;9.678;2023-04-20T02:27:29;98760.72;;;4.66;100.00
29903;BME280;30288;50.514;9.678;2023-04-20T02:29:37;98754.94;;;4.64;100.00
29903;BME280;30288;50.514;9.678;2023-04-20T02:31:42;98757.47;;;4.53;100.00
29903;BME280;30288;50.514;9.678;2023-04-20T02:33:50;98749.97;;;4.55;100.00
29903;BME280;30288;50.514;9.678;2023-04-20T02:35:55;98749.16;;;4.53;100.00
29903;BME280;30288;50.514;9.678;2023-04-20T02:38:03;98753.31;;;4.48;100.00
29903;BME280;30288;50.514;9.678;2023-04-20T02:40:09;98750.84;;;4.38;100.00
29903;BME280;30288;50.514;9.678;2023-04-20T02:42:14;98746.72;;;4.40;100.00
29903;BME280;30288;50.514;9.678;2023-04-20T02:44:21;98748.38;;;4.42;100.00
29903;BME280;30288;50.514;9.678;2023-04-20T02:46:29;98745.03;;;4.44;100.00
29903;BME280;30288;50.514;9.678;2023-04-20T02:48:34;98748.38;;;4.42;100.00
29903;BME280;30288;50.514;9.678;2023-04-20T02:50:41;98745.06;;;4.30;100.00
29903;BME280;30288;50.514;9.678;2023-04-20T02:52:52;98740.91;;;4.29;100.00
29903;BME280;30288;50.514;9.678;2023-04-20T02:54:58;98739.28;;;4.25;100.00
29903;BME280;30288;50.514;9.678;2023-04-20T02:57:03;98736.78;;;4.25;100.00
29903;BME280;30288;50.514;9.678;2023-04-20T02:59:09;98731.78;;;4.25;100.00
29903;BME280;30288;50.514;9.678;2023-04-20T03:01:23;98723.47;;;4.28;100.00
29903;BME280;30288;50.514;9.678;2023-04-20T03:03:40;98723.47;;;4.29;100.00
29903;BME280;30288;50.514;9.678;2023-04-20T03:05:46;98725.97;;;4.26;100.00
29903;BME280;30288;50.514;9.678;2023-04-20T03:07:52;98724.28;;;4.28;100.00
29903;BME280;30288;50.514;9.678;2023-04-20T03:09:59;98721.00;;;4.26;100.00
29903;BME280;30288;50.514;9.678;2023-04-20T03:12:21;98721.00;;;4.22;100.00
29903;BME280;30288;50.514;9.678;2023-04-20T03:14:46;98716.00;;;4.23;100.00
29903;BME280;30288;50.514;9.678;2023-04-20T03:16:55;98710.19;;;4.24;100.00
29903;BME280;30288;50.514;9.678;2023-04-20T03:19:03;98711.00;;;4.28;100.00
29903;BME280;30288;50.514;9.678;2023-04-20T03:21:09;98715.19;;;4.18;100.00
29903;BME280;30288;50.514;9.678;2023-04-20T03:23:16;98711.84;;;4.19;100.00
29903;BME280;30288;50.514;9.678;2023-04-20T03:25:21;98701.06;;;4.14;100.00
29903;BME280;30288;50.514;9.678;2023-04-20T03:27:33;98708.56;;;4.05;100.00
29903;BME280;30288;50.514;9.678;2023-04-20T03:29:43;98710.25;;;4.06;100.00
29903;BME280;30288;50.514;9.678;2023-04-20T03:31:50;98701.94;;;4.01;100.00
29903;BME280;30288;50.514;9.678;2023-04-20T03:33:56;98703.63;;;3.97;100.00
29903;BME280;30288;50.514;9.678;2023-04-20T03:36:05;98708.63;;;3.93;100.00
29903;BME280;30288;50.514;9.678;2023-04-20T03:38:11;98701.16;;;3.88;100.00
29903;BME280;30288;50.514;9.678;2023-04-20T03:40:16;98702.81;;;3.94;100.00
29903;BME280;30288;50.514;9.678;2023-04-20T03:42:21;98700.31;;;3.94;100.00
29903;BME280;30288;50.514;9.678;2023-04-20T03:44:28;98704.44;;;3.90;100.00
29903;BME280;30288;50.514;9.678;2023-04-20T03:46:34;98706.13;;;3.85;100.00
29903;BME280;30288;50.514;9.678;2023-04-20T03:48:39;98700.31;;;3.88;100.00
29903;BME280;30288;50.514;9.678;2023-04-20T03:50:44;98701.16;;;3.82;100.00
29903;BME280;30288;50.514;9.678;2023-04-20T03:52:52;98698.66;;;3.84;100.00
29903;BME280;30288;50.514;9.678;2023-04-20T03:54:58;98701.16;;;3.82;100.00
29903;BME280;30288;50.514;9.678;2023-04-20T03:57:03;98697.00;;;3.86;100.00
29903;BME280;30288;50.514;9.678;2023-04-20T03:59:08;98692.84;;;3.89;100.00
29903;BME280;30288;50.514;9.678;2023-04-20T04:01:17;98694.50;;;3.92;100.00
29903;BME280;30288;50.514;9.678;2023-04-20T04:03:23;98687.84;;;3.92;100.00
29903;BME280;30288;50.514;9.678;2023-04-20T04:05:29;98698.66;;;3.99;100.00
29903;BME280;30288;50.514;9.678;2023-04-20T04:07:35;98693.66;;;3.90;100.00
29903;BME280;30288;50.514;9.678;2023-04-20T04:09:43;98687.03;;;3.92;100.00
29903;BME280;30288;50.514;9.678;2023-04-20T04:11:50;98687.88;;;3.89;100.00
29903;BME280;30288;50.514;9.678;2023-04-20T04:13:57;98686.22;;;3.88;100.00
29903;BME280;30288;50.514;9.678;2023-04-20T04:16:03;98682.88;;;3.82;100.00
29903;BME280;30288;50.514;9.678;2023-04-20T04:18:10;98687.03;;;3.83;100.00
29903;BME280;30288;50.514;9.678;2023-04-20T04:20:16;98686.19;;;3.85;100.00
29903;BME280;30288;50.514;9.678;2023-04-20T04:22:21;98682.88;;;3.86;100.00
29903;BME280;30288;50.514;9.678;2023-04-20T04:24:49;98683.72;;;3.87;100.00
29903;BME280;30288;50.514;9.678;2023-04-20T04:26:56;98681.22;;;3.85;100.00
29903;BME280;30288;50.514;9.678;2023-04-20T04:29:10;98683.72;;;3.78;100.00
29903;BME280;30288;50.514;9.678;2023-04-20T04:31:15;98688.72;;;3.75;100.00
29903;BME280;30288;50.514;9.678;2023-04-20T04:33:22;98695.38;;;3.70;100.00
29903;BME280;30288;50.514;9.678;2023-04-20T04:35:29;98682.06;;;3.71;100.00
29903;BME280;30288;50.514;9.678;2023-04-20T04:37:34;98686.22;;;3.76;100.00
29903;BME280;30288;50.514;9.678;2023-04-20T04:39:40;98687.06;;;3.80;100.00
29903;BME280;30288;50.514;9.678;2023-04-20T04:42:06;98691.16;;;3.85;100.00
29903;BME280;30288;50.514;9.678;2023-04-20T04:44:15;98699.47;;;3.90;100.00
29903;BME280;30288;50.514;9.678;2023-04-20T04:46:20;98688.72;;;3.84;100.00
29903;BME280;30288;50.514;9.678;2023-04-20T04:48:26;98693.69;;;3.84;100.00
29903;BME280;30288;50.514;9.678;2023-04-20T04:50:32;98687.03;;;3.86;100.00
29903;BME280;30288;50.514;9.678;2023-04-20T04:52:37;98685.38;;;3.88;100.00
29903;BME280;30288;50.514;9.678;2023-04-20T04:54:42;98688.69;;;3.87;100.00
29903;BME280;30288;50.514;9.678;2023-04-20T04:56:48;98691.16;;;3.90;100.00
29903;BME280;30288;50.514;9.678;2023-04-20T04:58:55;98690.34;;;3.99;100.00
29903;BME280;30288;50.514;9.678;2023-04-20T05:01:01;98687.00;;;3.98;100.00
29903;BME280;30288;50.514;9.678;2023-04-20T05:03:06;98682.03;;;3.95;100.00
29903;BME280;30288;50.514;9.678;2023-04-20T05:05:12;98691.19;;;3.93;100.00
29903;BME280;30288;50.514;9.678;2023-04-20T05:07:18;98680.34;;;4.03;100.00
29903;BME280;30288;50.514;9.678;2023-04-20T05:09:23;98686.19;;;4.04;100.00
29903;BME280;30288;50.514;9.678;2023-04-20T05:11:34;98694.47;;;4.07;100.00
29903;BME280;30288;50.514;9.678;2023-04-20T05:13:40;98695.31;;;4.03;100.00
29903;BME280;30288;50.514;9.678;2023-04-20T05:15:48;98694.44;;;4.12;100.00
29903;BME280;30288;50.514;9.678;2023-04-20T05:17:53;98694.44;;;4.09;100.00
29903;BME280;30288;50.514;9.678;2023-04-20T05:19:59;98696.09;;;4.17;100.00
29903;BME280;30288;50.514;9.678;2023-04-20T05:22:07;98700.22;;;4.24;100.00
29903;BME280;30288;50.514;9.678;2023-04-20T05:24:13;98703.53;;;4.29;100.00
29903;BME280;30288;50.514;9.678;2023-04-20T05:26:19;98706.84;;;4.28;100.00
29903;BME280;30288;50.514;9.678;2023-04-20T05:28:24;98706.84;;;4.31;100.00
29903;BME280;30288;50.514;9.678;2023-04-20T05:30:29;98709.31;;;4.37;100.00
29903;BME280;30288;50.514;9.678;2023-04-20T05:32:37;98706.78;;;4.44;100.00
29903;BME280;30288;50.514;9.678;2023-04-20T05:34:43;98706.81;;;4.47;100.00
29903;BME280;30288;50.514;9.678;2023-04-20T05:36:48;98703.41;;;4.57;100.00
29903;BME280;30288;50.514;9.678;2023-04-20T05:38:53;98706.81;;;4.47;100.00
29903;BME280;30288;50.514;9.678;2023-04-20T05:40:59;98705.94;;;4.48;100.00
29903;BME280;30288;50.514;9.678;2023-04-20T05:43:04;98710.91;;;4.54;100.00
29903;BME280;30288;50.514;9.678;2023-04-20T05:45:10;98710.88;;;4.63;100.00
29903;BME280;30288;50.514;9.678;2023-04-20T05:47:15;98703.38;;;4.63;100.00
29903;BME280;30288;50.514;9.678;2023-04-20T05:49:23;98707.50;;;4.73;100.00
29903;BME280;30288;50.514;9.678;2023-04-20T05:51:28;98713.28;;;4.78;100.00
29903;BME280;30288;50.514;9.678;2023-04-20T05:53:35;98710.78;;;4.84;100.00
29903;BME280;30288;50.514;9.678;2023-04-20T05:55:40;98714.03;;;4.97;100.00
29903;BME280;30288;50.514;9.678;2023-04-20T05:57:46;98712.38;;;4.90;100.00
29903;BME280;30288;50.514;9.678;2023-04-20T05:59:51;98713.97;;;5.07;100.00
29903;BME280;30288;50.514;9.678;2023-04-20T06:01:57;98709.72;;;5.21;100.00
29903;BME280;30288;50.514;9.678;2023-04-20T06:04:02;98709.72;;;5.21;100.00
29903;BME280;30288;50.514;9.678;2023-04-20T06:06:11;98708.84;;;5.24;100.00
29903;BME280;30288;50.514;9.678;2023-04-20T06:08:17;98711.28;;;5.35;100.00
29903;BME280;30288;50.514;9.678;2023-04-20T06:10:23;98713.69;;;5.42;100.00
29903;BME280;30288;50.514;9.678;2023-04-20T06:12:33;98713.63;;;5.56;100.00
29903;BME280;30288;50.514;9.678;2023-04-20T06:14:39;98711.88;;;5.61;100.00
29903;BME280;30288;50.514;9.678;2023-04-20T06:16:44;98717.75;;;5.57;100.00
29903;BME280;30288;50.514;9.678;2023-04-20T06:18:49;98721.00;;;5.68;100.00
29903;BME280;30288;50.514;9.678;2023-04-20T06:20:54;98715.16;;;5.69;100.00
29903;BME280;30288;50.514;9.678;2023-04-20T06:23:03;98715.13;;;5.72;100.00
29903;BME280;30288;50.514;9.678;2023-04-20T06:25:09;98704.16;;;5.85;100.00
29903;BME280;30288;50.514;9.678;2023-04-20T06:27:14;98706.69;;;5.84;100.00
29903;BME280;30288;50.514;9.678;2023-04-20T06:29:19;98702.44;;;5.96;100.00
29903;BME280;30288;50.514;9.678;2023-04-20T06:31:25;98703.16;;;6.07;100.00
29903;BME280;30288;50.514;9.678;2023-04-20T06:33:30;98697.28;;;6.08;100.00
29903;BME280;30288;50.514;9.678;2023-04-20T06:35:36;98693.75;;;6.28;100.00
29903;BME280;30288;50.514;9.678;2023-04-20T06:37:41;98697.13;;;6.24;100.00
29903;BME280;30288;50.514;9.678;2023-04-20T06:39:52;98695.41;;;6.32;100.00
29903;BME280;30288;50.514;9.678;2023-04-20T06:41:57;98690.41;;;6.29;100.00
29903;BME280;30288;50.514;9.678;2023-04-20T06:44:04;98694.34;;;6.46;100.00
29903;BME280;30288;50.514;9.678;2023-04-20T06:46:09;98696.72;;;6.57;100.00
29903;BME280;30288;50.514;9.678;2023-04-20T06:48:14;98695.91;;;6.56;100.00
29903;BME280;30288;50.514;9.678;2023-04-20T06:50:33;98696.63;;;6.66;100.00
29903;BME280;30288;50.514;9.678;2023-04-20T06:52:39;98699.00;;;6.75;100.00
29903;BME280;30288;50.514;9.678;2023-04-20T06:54:48;98691.28;;;6.90;100.00
29903;BME280;30288;50.514;9.678;2023-04-20T06:56:53;98692.72;;;7.07;100.00
29903;BME280;30288;50.514;9.678;2023-04-20T06:58:58;98702.47;;;7.25;100.00
29903;BME280;30288;50.514;9.678;2023-04-20T07:01:04;98704.75;;;7.38;100.00
29903;BME280;30288;50.514;9.678;2023-04-20T07:03:09;98702.25;;;7.40;100.00
29903;BME280;30288;50.514;9.678;2023-04-20T07:05:16;98706.09;;;7.59;100.00
29903;BME280;30288;50.514;9.678;2023-04-20T07:07:22;98710.31;;;7.57;100.00
29903;BME280;30288;50.514;9.678;2023-04-20T07:09:27;98698.34;;;7.74;100.00
29903;BME280;30288;50.514;9.678;2023-04-20T07:11:34;98711.41;;;7.91;100.00
29903;BME280;30288;50.514;9.678;2023-04-20T07:13:40;98714.47;;;8.06;100.00
29903;BME280;30288;50.514;9.678;2023-04-20T07:15:45;98700.38;;;7.99;100.00
29903;BME280;30288;50.514;9.678;2023-04-20T07:17:50;98706.28;;;7.98;100.00
29903;BME280;30288;50.514;9.678;2023-04-20T07:19:55;98712.00;;;8.04;100.00
29903;BME280;30288;50.514;9.678;2023-04-20T07:22:07;98711.16;;;8.04;100.00
29903;BME280;30288;50.514;9.678;2023-04-20T07:24:12;98714.69;;;7.93;100.00
29903;BME280;30288;50.514;9.678;2023-04-20T07:26:17;98722.28;;;7.90;100.00
29903;BME280;30288;50.514;9.678;2023-04-20T07:28:25;98724.69;;;7.97;100.00
29903;BME280;30288;50.514;9.678;2023-04-20T07:30:30;98713.97;;;8.36;100.00
29903;BME280;30288;50.514;9.678;2023-04-20T07:32:37;98712.00;;;8.50;100.00
29903;BME280;30288;50.514;9.678;2023-04-20T07:34:42;98719.47;;;8.52;100.00
29903;BME280;30288;50.514;9.678;2023-04-20T07:36:48;98717.25;;;8.38;100.00
29903;BME280;30288;50.514;9.678;2023-04-20T07:38:53;98725.91;;;8.22;100.00
29903;BME280;30288;50.514;9.678;2023-04-20T07:40:58;98732.72;;;8.14;100.00
29903;BME280;30288;50.514;9.678;2023-04-20T07:43:03;98721.75;;;8.21;100.00
29903;BME280;30288;50.514;9.678;2023-04-20T07:45:12;98722.66;;;8.17;100.00
29903;BME280;30288;50.514;9.678;2023-04-20T07:47:18;98729.13;;;8.27;100.00
29903;BME280;30288;50.514;9.678;2023-04-20T07:49:23;98734.06;;;8.33;100.00
29903;BME280;30288;50.514;9.678;2023-04-20T07:51:28;98726.91;;;8.56;100.00
29903;BME280;30288;50.514;9.678;2023-04-20T07:53:35;98720.19;;;8.60;100.00
29903;BME280;30288;50.514;9.678;2023-04-20T07:55:40;98729.00;;;9.16;100.00
29903;BME280;30288;50.514;9.678;2023-04-20T07:57:45;98720.63;;;9.17;100.00
29903;BME280;30288;50.514;9.678;2023-04-20T07:59:50;98720.66;;;9.14;100.00
29903;BME280;30288;50.514;9.678;2023-04-20T08:02:01;98717.91;;;9.25;100.00
29903;BME280;30288;50.514;9.678;2023-04-20T08:04:07;98718.16;;;8.75;100.00
29903;BME280;30288;50.514;9.678;2023-04-20T08:06:12;98711.47;;;8.74;100.00
29903;BME280;30288;50.514;9.678;2023-04-20T08:08:17;98718.47;;;8.60;100.00
29903;BME280;30288;50.514;9.678;2023-04-20T08:10:23;98718.44;;;8.62;100.00
29903;BME280;30288;50.514;9.678;2023-04-20T08:12:28;98723.25;;;8.72;100.00
29903;BME280;30288;50.514;9.678;2023-04-20T08:14:34;98715.91;;;8.63;100.00
29903;BME280;30288;50.514;9.678;2023-04-20T08:16:40;98718.16;;;8.75;100.00
29903;BME280;30288;50.514;9.678;2023-04-20T08:18:48;98718.13;;;8.77;100.00
29903;BME280;30288;50.514;9.678;2023-04-20T08:20:53;98722.94;;;8.88;100.00
29903;BME280;30288;50.514;9.678;2023-04-20T08:22:58;98717.00;;;8.90;100.00
29903;BME280;30288;50.514;9.678;2023-04-20T08:25:04;98706.94;;;8.92;100.00
29903;BME280;30288;50.514;9.678;2023-04-20T08:27:09;98706.41;;;9.16;100.00
29903;BME280;30288;50.514;9.678;2023-04-20T08:29:15;98702.09;;;9.21;100.00
29903;BME280;30288;50.514;9.678;2023-04-20T08:31:20;98702.59;;;9.35;100.00
29903;BME280;30288;50.514;9.678;2023-04-20T08:33:25;98702.78;;;9.61;100.00
29903;BME280;30288;50.514;9.678;2023-04-20T08:35:32;98694.53;;;9.89;100.00
29903;BME280;30288;50.514;9.678;2023-04-20T08:37:38;98687.78;;;10.23;100.00
29903;BME280;30288;50.514;9.678;2023-04-20T08:39:44;98693.44;;;10.61;100.00
29903;BME280;30288;50.514;9.678;2023-04-20T08:41:49;98685.22;;;10.83;100.00
29903;BME280;30288;50.514;9.678;2023-04-20T08:43:57;98682.72;;;11.11;100.00
29903;BME280;30288;50.514;9.678;2023-04-20T08:46:02;98678.34;;;11.69;100.00
29903;BME280;30288;50.514;9.678;2023-04-20T08:48:08;98677.06;;;11.56;100.00
29903;BME280;30288;50.514;9.678;2023-04-20T08:50:15;98679.94;;;11.96;100.00
29903;BME280;30288;50.514;9.678;2023-04-20T08:52:22;98680.31;;;11.86;100.00
29903;BME280;30288;50.514;9.678;2023-04-20T08:54:28;98674.91;;;11.70;100.00
29903;BME280;30288;50.514;9.678;2023-04-20T08:56:36;98670.19;;;12.10;100.00
29903;BME280;30288;50.514;9.678;2023-04-20T08:58:41;98672.19;;;11.77;100.00
29903;BME280;30288;50.514;9.678;2023-04-20T09:00:47;98674.03;;;11.97;100.00
29903;BME280;30288;50.514;9.678;2023-04-20T09:02:54;98671.09;;;12.78;100.00
29903;BME280;30288;50.514;9.678;2023-04-20T09:05:01;98666.59;;;13.29;100.00
29903;BME280;30288;50.514;9.678;2023-04-20T09:07:16;98668.56;;;13.43;100.00
29903;BME280;30288;50.514;9.678;2023-04-20T09:09:25;98675.78;;;13.72;100.00
29903;BME280;30288;50.514;9.678;2023-04-20T09:11:30;98675.16;;;13.87;100.00
29903;BME280;30288;50.514;9.678;2023-04-20T09:13:35;98681.00;;;13.88;100.00
29903;BME280;30288;50.514;9.678;2023-04-20T09:15:40;98676.03;;;13.66;100.00
29903;BME280;30288;50.514;9.678;2023-04-20T09:17:45;98684.94;;;13.12;100.00
29903;BME280;30288;50.514;9.678;2023-04-20T09:19:52;98679.56;;;12.98;100.00
29903;BME280;30288;50.514;9.678;2023-04-20T09:22:00;98684.78;;;12.72;100.00
29903;BME280;30288;50.514;9.678;2023-04-20T09:24:08;98680.28;;;12.10;100.00
29903;BME280;30288;50.514;9.678;2023-04-20T09:26:19;98675.88;;;11.92;100.00
29903;BME280;30288;50.514;9.678;2023-04-20T09:28:34;98677.06;;;11.56;100.00
29903;BME280;30288;50.514;9.678;2023-04-20T09:30:43;98679.94;;;11.70;100.00
29903;BME280;30288;50.514;9.678;2023-04-20T09:32:58;98676.31;;;11.54;100.00
29903;BME280;30288;50.514;9.678;2023-04-20T09:35:05;98674.47;;;12.08;100.00
29903;BME280;30288;50.514;9.678;2023-04-20T09:37:14;98672.97;;;12.94;100.00
29903;BME280;30288;50.514;9.678;2023-04-20T09:39:21;98668.94;;;13.74;100.00
29903;BME280;30288;50.514;9.678;2023-04-20T09:41:30;98667.16;;;13.56;100.00
29903;BME280;30288;50.514;9.678;2023-04-20T09:43:36;98669.94;;;13.50;100.00
29903;BME280;30288;50.514;9.678;2023-04-20T09:45:41;98666.44;;;12.89;100.00
29903;BME280;30288;50.514;9.678;2023-04-20T09:47:47;98670.31;;;12.54;100.00
29903;BME280;30288;50.514;9.678;2023-04-20T09:49:54;98664.50;;;12.28;100.00
29903;BME280;30288;50.514;9.678;2023-04-20T09:52:02;98676.56;;;12.67;100.00
29903;BME280;30288;50.514;9.678;2023-04-20T09:54:08;98670.88;;;12.39;100.00
29903;BME280;30288;50.514;9.678;2023-04-20T09:56:14;98668.09;;;12.21;100.00
29903;BME280;30288;50.514;9.678;2023-04-20T09:58:24;98663.94;;;12.20;100.00
29903;BME280;30288;50.514;9.678;2023-04-20T10:00:30;98664.16;;;12.38;100.00
29903;BME280;30288;50.514;9.678;2023-04-20T10:02:35;98656.75;;;12.78;100.00
29903;BME280;30288;50.514;9.678;2023-04-20T10:04:52;98659.38;;;12.75;100.00
29903;BME280;30288;50.514;9.678;2023-04-20T10:07:00;98659.16;;;12.81;100.00
29903;BME280;30288;50.514;9.678;2023-04-20T10:09:08;98656.09;;;13.17;100.00
29903;BME280;30288;50.514;9.678;2023-04-20T10:11:29;98656.09;;;12.95;100.00
29903;BME280;30288;50.514;9.678;2023-04-20T10:13:53;98650.81;;;13.01;100.00
29903;BME280;30288;50.514;9.678;2023-04-20T10:15:58;98647.03;;;13.33;100.00
29903;BME280;30288;50.514;9.678;2023-04-20T10:18:15;98637.25;;;14.05;100.00
29903;BME280;30288;50.514;9.678;2023-04-20T10:20:24;98637.69;;;14.14;100.00
29903;BME280;30288;50.514;9.678;2023-04-20T10:22:31;98644.91;;;13.44;100.00
29903;BME280;30288;50.514;9.678;2023-04-20T10:24:37;98638.81;;;12.84;100.00
29903;BME280;30288;50.514;9.678;2023-04-20T10:26:44;98641.34;;;12.84;100.00
29903;BME280;30288;50.514;9.678;2023-04-20T10:28:52;98639.75;;;13.03;100.00
29903;BME280;30288;50.514;9.678;2023-04-20T10:30:57;98643.16;;;13.02;100.00
29903;BME280;30288;50.514;9.678;2023-04-20T10:33:05;98636.94;;;12.89;100.00
29903;BME280;30288;50.514;9.678;2023-04-20T10:35:11;98630.84;;;13.37;100.00
29903;BME280;30288;50.514;9.678;2023-04-20T10:37:17;98621.63;;;13.56;100.00
29903;BME280;30288;50.514;9.678;2023-04-20T10:39:22;98623.75;;;13.45;100.00
29903;BME280;30288;50.514;9.678;2023-04-20T10:41:29;98621.41;;;13.61;100.00
29903;BME280;30288;50.514;9.678;2023-04-20T10:43:34;98620.88;;;13.34;100.00
29903;BME280;30288;50.514;9.678;2023-04-20T10:45:46;98616.56;;;13.56;100.00
29903;BME280;30288;50.514;9.678;2023-04-20T10:47:51;98612.75;;;13.46;100.00
29903;BME280;30288;50.514;9.678;2023-04-20T10:50:09;98604.47;;;13.22;100.00
29903;BME280;30288;50.514;9.678;2023-04-20T10:52:17;98608.84;;;13.19;100.00
29903;BME280;30288;50.514;9.678;2023-04-20T10:54:22;98615.00;;;13.11;100.00
29903;BME280;30288;50.514;9.678;2023-04-20T10:56:36;98608.72;;;13.00;100.00
29903;BME280;30288;50.514;9.678;2023-04-20T10:58:42;98606.19;;;13.00;100.00
29903;BME280;30288;50.514;9.678;2023-04-20T11:00:59;98603.69;;;12.78;100.00
29903;BME280;30288;50.514;9.678;2023-04-20T11:03:05;98604.38;;;12.60;100.00
29903;BME280;30288;50.514;9.678;2023-04-20T11:05:11;98599.94;;;12.45;100.00
29903;BME280;30288;50.514;9.678;2023-04-20T11:07:17;98610.94;;;12.20;100.00
29903;BME280;30288;50.514;9.678;2023-04-20T11:09:24;98603.81;;;12.53;100.00